• Join FlightAware (Why Join?)
  • Login
  • US Flag 
03:04PM EST


 

Airport Tracker/Info


-or-


 

Live Flight TrackerFlight Track Log ✈ AWE3827 ✈ 22-Apr-2013 ✈ KCLT - KBNA

Flight Track Log - Related Links

Times and Time Zones

All times are in EDT time to prevent confusion due to time zone crossing. See the AWE3827 flight status page for this flight to view local times or setup timezone preferences in your user account.

Time Position Orientation Groundspeed Altitude Reporting Facility
EDT Latitude Longitude Course Direction KTS MPH feet Rate Location/Type
08:15AM 35.2353 -80.9619 239° Southwest 169 194 2,000  Level Atlanta Center
08:15AM 35.2472 -80.9622 359° North 169 194 2,500 1,860 Climbing FAA TRACON SMA TRACON (SMA)
08:16AM 35.2606 -80.9725 328° Northwest 190 219 3,100 1,800 Climbing FAA TRACON SMA TRACON (SMA)
08:16AM 35.2742 -80.9864 320° Northwest 209 241 3,700 2,220 Climbing FAA TRACON SMA TRACON (SMA)
08:16AM 35.2894 -81.0086 310° West 230 265 4,600 2,520 Climbing FAA TRACON SMA TRACON (SMA)
08:17AM 35.2565 -81.1553 282° West  Level FlightAware Approximate
08:17AM 35.2925 -81.0344 278° West 262 302 5,400  Level FAA TRACON SMA TRACON (SMA)
08:17AM 35.2897 -81.0617 263° West 266 306 6,200 2,760 Climbing FAA TRACON SMA TRACON (SMA)
08:17AM 35.2858 -81.0956 262° West 258 297 7,300 2,580 Climbing FAA TRACON SMA TRACON (SMA)
08:18AM 35.2459 -81.2651 242° Southwest  Level FlightAware Approximate
08:18AM 35.2833 -81.1231 264° West 264 304 8,000  Level FAA TRACON SMA TRACON (SMA)
08:18AM 35.2794 -81.1575 262° West 266 306 8,000 120 Level FAA TRACON SMA TRACON (SMA)
08:18AM 35.2769 -81.1825 263° West 266 306 8,100 1,200 Climbing FAA TRACON SMA TRACON (SMA)
08:19AM 35.1995 -81.3677 239° Southwest  Level FlightAware Approximate
08:19AM 35.2731 -81.2125 261° West 265 305 8,800  Level FAA TRACON SMA TRACON (SMA)
08:19AM 35.2689 -81.2331 256° West 276 318 9,300 1,920 Climbing Atlanta Center
08:20AM 35.1496 -81.4676 239° Southwest  Level FlightAware Approximate
08:20AM 35.2311 -81.3181 241° Southwest 283 326 11,300  Level Atlanta Center
08:21AM 35.1875 -81.4186 242° Southwest 317 365 12,900 1,680 Climbing Atlanta Center
08:22AM 35.1478 -81.5164 244° Southwest 332 382 14,800 1,500 Climbing Atlanta Center
08:23AM 35.1378 -81.6361 264° West 343 395 15,900 1,260 Climbing Atlanta Center
08:24AM 35.1300 -81.7761 266° West 364 419 17,400 1,440 Climbing Atlanta Center
08:25AM 35.1175 -81.8956 263° West 369 425 18,800 1,500 Climbing Atlanta Center
08:26AM 35.1092 -82.0178 265° West 364 419 20,500 1,440 Climbing Atlanta Center
08:27AM 35.0986 -82.1397 264° West 364 419 21,700 1,080 Climbing Atlanta Center
08:28AM 35.0919 -82.2619 266° West 370 426 22,700 1,020 Climbing Atlanta Center
08:29AM 35.1417 -82.3778 298° West 359 413 23,800 960 Climbing Atlanta Center
08:30AM 35.2017 -82.4933 302° West 381 438 24,700 840 Climbing Atlanta Center
08:31AM 35.2592 -82.6017 303° West 391 450 25,500 600 Climbing Atlanta Center
08:32AM 35.3189 -82.7203 302° West 396 456 26,000 240 Climbing Atlanta Center
08:33AM 35.3764 -82.8392 301° West 408 470 26,000  Level Atlanta Center
08:34AM 35.4361 -82.9556 302° West 401 461 26,000  Level Atlanta Center
08:35AM 35.4892 -83.0644 301° West 389 448 26,000  Level Atlanta Center
08:36AM 35.5442 -83.1708 302° West 384 442 26,000  Level Atlanta Center
08:37AM 35.5928 -83.2650 302° West 379 436 26,000  Level Atlanta Center
08:38AM 35.6456 -83.3717 301° West 379 436 26,000  Level Atlanta Center
08:39AM 35.6961 -83.4761 301° West 374 430 26,000  Level Atlanta Center
08:40AM 35.7508 -83.5833 302° West 374 430 26,000  Level Atlanta Center
08:41AM 35.8053 -83.6906 302° West 369 425 26,000  Level Atlanta Center
08:42AM 35.8578 -83.8006 301° West 369 425 26,000  Level Atlanta Center
08:43AM 35.9017 -83.9131 296° West 369 425 26,000  Level Atlanta Center
08:44AM 35.8831 -84.0336 259° West 346 398 26,000  Level Atlanta Center
08:45AM 35.8622 -84.1542 258° West 351 404 26,000 -420 Level Atlanta Center
08:46AM 35.8411 -84.2794 258° West 362 417 25,200 -900 Descending Atlanta Center
08:47AM 35.8219 -84.3947 258° West 362 417 24,200 -1,020 Descending Atlanta Center
08:48AM 35.8028 -84.5100 258° West 357 411 23,200 -1,020 Descending Atlanta Center
08:49AM 35.7836 -84.6275 259° West 352 405 22,200 -1,020 Descending Atlanta Center
08:51AM 35.7442 -84.8428 257° West 352 405 20,400 -780 Descending Memphis Center
08:52AM 35.7261 -84.9589 259° West 347 399 20,000 -240 Descending Memphis Center
08:53AM 35.7206 -85.0719 267° West 342 394 20,000  Level Memphis Center
08:54AM 35.7169 -85.1819 268° West 332 382 20,000 -360 Level Memphis Center
08:55AM 35.7092 -85.2950 265° West 332 382 19,300 -840 Descending Memphis Center
08:56AM 35.7031 -85.4053 266° West 332 382 18,400 -960 Descending Memphis Center
08:57AM 35.6969 -85.5131 266° West 332 382 17,400 -1,260 Descending Memphis Center
08:58AM 35.6906 -85.6206 266° West 332 382 15,900 -1,560 Descending Memphis Center
08:59AM 35.6842 -85.7258 266° West 332 382 14,300 -1,560 Descending Memphis Center
09:00AM 35.6778 -85.8308 266° West 326 375 12,800 -1,560 Descending Memphis Center
09:01AM 35.6733 -85.9411 267° West 316 364 11,200 -1,440 Descending Memphis Center
09:02AM 35.6667 -86.0461 266° West 307 353 10,000 -720 Descending Memphis Center
09:03AM 35.7111 -86.1256 305° West 272 313 9,800 -840 Descending Memphis Center
09:04AM 35.7514 -86.2106 300° West 284 327 8,400 -1,380 Descending Memphis Center
09:05AM 35.7833 -86.2908 296° West 274 315 7,100 -1,320 Descending Memphis Center
09:06AM 35.8211 -86.3683 301° West 264 304 5,800 -1,080 Descending Memphis Center
09:07AM 35.8531 -86.4489 296° West 264 304 5,000 -900 Descending Memphis Center
09:08AM 35.8889 -86.5264 300° West 256 295 4,100 -960 Descending Memphis Center
09:09AM 35.9347 -86.5986 308° West 262 302 3,100 -1,020 Descending Memphis Center